Aérodrome :
LOGIN :

S'inscrire | Disclaimer

   EN    FR    IT 

 










Légende :    VFR   VFR Marginal   IFR   IFR Intensif   IFR Très Intensif
Visi : 
Plafond : 
>= 8 km
>= 3000ft
5 à 8 km
1000 à 3000 ft
1500m à 5 km
500 à 1000 ft
800 à 1500m
200 à 500 ft
< 800m
< 200 ft
Symboles :   Orages  Brouillard  Fortes neiges  Fortes précipitations  Vent > 20 kt
SIGMETs :   Divers  Orages  Givrage  Turbulence  Onde Orograph.  Cendres Volcan.






- Altitude de l'aérodrome : 1411 ft
- Code IATA : GVA


LSGG - Genève Cointrin

DERNIER METAR :
  • 031950Z 25004KT 220V290 6000 SHRA FEW025 FEW040TCU SCT050 BKN080 15/14 Q1005 TEMPO 4900 +SHRA

METARs EXPIRÉS :
  • 031920Z 23006KT 200V280 9999 -SHRA FEW025 FEW040CB SCT060 BKN080 16/14 Q1005 TEMPO 4900 SHRA
  • 031850Z 25006KT 9999 -SHRA FEW035 FEW040CB SCT060 BKN090 16/14 Q1005 NOSIG
  • 031820Z 31005KT 270V350 9999 VCTS FEW025 FEW045CB SCT060 BKN090 16/13 Q1005 RETS NOSIG
  • 031750Z 03010KT 330V050 9999 TS FEW050CB SCT060 BKN080 20/12 Q1004 BECMG 4900 TSRA
  • 031720Z 01006KT 280V040 9999 FEW050TCU SCT070 BKN090 21/11 Q1004 NOSIG

TAF TAF LSGG
Valide du 03 à 18h jusqu'au 05 à 00h UTC


031725Z 0318/0424 25012KT 9999 TSRA FEW040 SCT050CB BKN080 TX19/0415Z TN14/0405Z
BECMG 0318/0319 VRB03KT NSW
TEMPO 0400/0406 22015G25KT TSRA SCT050CB
TEMPO 0417/0421 22015KT TS FEW060CB
ATIS : +41 22 417 40 81



MET'MAP, la Météo Aéronautique d'un coup d'oeil ! - Copyright ORBIFLY Décembre 2007 - Disclaimer

ORBIFLY MET'MAP TEAM :

Programmation & Développement : Alexandra Zaïnal
Sur une idée originale de : Baudouin d'Aumeries
Assistance à la programmation : Marc-Olivier Méhu
Soutien technique & logistique : Manuel Goepfert

Contact : metmap@orbifly.com




SOURCES & CREDITS :

   NOAA